createdAt,value
2022-12-13T00:03:01.451Z,99628.16
2022-12-13T00:08:03.255Z,99623.84
2022-12-13T00:13:05.051Z,99615.34
2022-12-13T00:18:07.168Z,99615.25
2022-12-13T00:23:08.924Z,99599.13
2022-12-13T00:28:11.271Z,99603.41
2022-12-13T00:33:12.959Z,99600.00
2022-12-13T00:38:14.835Z,99596.63
2022-12-13T00:43:16.723Z,99606.69
2022-12-13T00:48:18.391Z,99603.91
2022-12-13T00:53:20.049Z,99602.50
2022-12-13T00:58:21.711Z,99595.63
2022-12-13T01:03:25.613Z,99590.41
2022-12-13T01:08:29.044Z,99602.50
2022-12-13T01:13:30.794Z,99599.06
2022-12-13T01:18:32.849Z,99607.38
2022-12-13T01:23:35.111Z,99604.59
2022-12-13T01:28:36.986Z,99590.09
2022-12-13T01:33:39.708Z,99587.72
2022-12-13T01:38:41.824Z,99591.13
2022-12-13T01:43:43.418Z,99591.91
2022-12-13T01:49:19.531Z,99584.88
2022-12-13T01:54:33.544Z,99593.47
2022-12-13T01:59:39.891Z,99596.97
2022-12-13T02:04:57.365Z,99594.38
2022-12-13T02:10:01.464Z,99583.28
2022-12-13T02:15:08.574Z,99594.41
2022-12-13T02:20:51.122Z,99589.31
2022-12-13T02:25:55.420Z,99581.63
2022-12-13T02:31:18.360Z,99589.25
2022-12-13T02:36:27.660Z,99579.91
2022-12-13T02:41:39.473Z,99586.63
2022-12-13T02:46:49.010Z,99589.34
2022-12-13T02:51:52.471Z,99584.03
2022-12-13T02:56:56.125Z,99579.59
2022-12-13T03:02:09.606Z,99576.94
2022-12-13T03:07:33.305Z,99572.75
2022-12-13T03:12:57.827Z,99574.28
2022-12-13T03:18:05.684Z,99578.09
2022-12-13T03:23:11.201Z,99567.88
2022-12-13T03:28:13.301Z,99578.84
2022-12-13T03:33:15.029Z,99572.59
2022-12-13T03:38:21.844Z,99570.78
2022-12-13T03:43:25.351Z,99565.53
2022-12-13T03:48:27.463Z,99560.13
2022-12-13T03:53:33.719Z,99554.72
2022-12-13T03:58:38.268Z,99554.31
2022-12-13T04:03:41.775Z,99554.97
2022-12-13T04:08:43.523Z,99559.06
2022-12-13T04:13:45.176Z,99557.91
2022-12-13T04:18:46.867Z,99554.25
2022-12-13T04:23:48.511Z,99553.97
2022-12-13T04:28:54.412Z,99554.72
2022-12-13T04:33:56.507Z,99556.03
2022-12-13T04:38:58.172Z,99553.31
2022-12-13T04:44:04.214Z,99552.53
2022-12-13T04:49:05.905Z,99559.63
2022-12-13T04:54:24.284Z,99561.84
2022-12-13T04:59:26.419Z,99553.78
2022-12-13T05:04:32.667Z,99557.94
2022-12-13T05:09:35.806Z,99556.69
2022-12-13T05:14:37.481Z,99566.66
2022-12-13T05:19:39.117Z,99567.09
2022-12-13T05:24:42.008Z,99566.06
2022-12-13T05:29:43.755Z,99574.78
2022-12-13T05:34:45.409Z,99564.72
2022-12-13T05:39:47.057Z,99564.75
2022-12-13T05:44:48.730Z,99574.19
2022-12-13T05:49:50.430Z,99571.13
2022-12-13T05:54:56.451Z,99570.78
2022-12-13T06:00:06.033Z,99569.19
2022-12-13T06:05:27.849Z,99576.16
2022-12-13T06:10:34.603Z,99581.22
2022-12-13T06:15:38.245Z,99577.66
2022-12-13T06:20:56.553Z,99581.78
2022-12-13T06:25:58.683Z,99586.94
2022-12-13T06:31:02.451Z,99590.75
2022-12-13T06:36:05.905Z,99598.31
2022-12-13T06:41:16.808Z,99597.69
2022-12-13T06:46:18.634Z,99596.53
2022-12-13T06:51:22.549Z,99603.88
2022-12-13T06:56:24.447Z,99604.66
2022-12-13T07:01:26.237Z,99595.56
2022-12-13T07:06:28.117Z,99607.25
2022-12-13T07:11:33.221Z,99605.09
2022-12-13T07:16:35.921Z,99615.19
2022-12-13T07:21:39.070Z,99615.59
2022-12-13T07:26:40.759Z,99613.66
2022-12-13T07:31:43.327Z,99624.56
2022-12-13T07:36:46.597Z,99627.91
2022-12-13T07:41:48.337Z,99632.44
2022-12-13T07:46:50.232Z,99626.69
2022-12-13T07:51:52.172Z,99642.69
2022-12-13T07:56:58.566Z,99637.88
2022-12-13T08:02:06.614Z,99643.41
2022-12-13T08:07:09.341Z,99645.09
2022-12-13T08:12:11.194Z,99638.28
2022-12-13T08:17:12.983Z,99631.56
2022-12-13T08:22:14.912Z,99632.69
2022-12-13T08:27:25.593Z,99628.06
2022-12-13T08:32:27.305Z,99632.59
2022-12-13T08:37:28.956Z,99635.97
2022-12-13T08:42:30.648Z,99631.09
2022-12-13T08:47:34.533Z,99631.53
2022-12-13T08:52:41.517Z,99628.03
2022-12-13T08:57:45.197Z,99629.31
2022-12-13T09:02:46.889Z,99624.28
2022-12-13T09:07:48.595Z,99623.72
2022-12-13T09:12:50.501Z,99621.28
2022-12-13T09:17:52.997Z,99633.91
2022-12-13T09:23:02.177Z,99630.78
2022-12-13T09:28:06.992Z,99631.19
2022-12-13T09:33:28.203Z,99627.28
2022-12-13T09:38:30.438Z,99625.69
2022-12-13T09:43:43.170Z,99627.91
2022-12-13T09:48:48.149Z,99614.88
2022-12-13T09:53:52.815Z,99615.84
2022-12-13T09:58:56.517Z,99610.84
2022-12-13T10:04:00.266Z,99612.25
2022-12-13T10:09:02.075Z,99604.88
2022-12-13T10:14:15.787Z,99596.56
2022-12-13T10:19:33.739Z,99601.69
2022-12-13T10:24:49.889Z,99592.25
2022-12-13T10:30:12.698Z,99583.50
2022-12-13T10:35:26.517Z,99580.75
2022-12-13T10:40:35.661Z,99579.81
2022-12-13T10:45:37.738Z,99575.88
2022-12-13T10:50:39.705Z,99572.09
2022-12-13T10:55:42.486Z,99567.38
2022-12-13T11:00:46.311Z,99568.41
2022-12-13T11:06:02.866Z,99559.38
2022-12-13T11:11:06.871Z,99555.56
2022-12-13T11:16:30.551Z,99547.78
2022-12-13T11:21:36.764Z,99543.97
2022-12-13T11:26:42.826Z,99543.81
2022-12-13T11:31:51.423Z,99544.31
2022-12-13T11:37:01.645Z,99542.50
2022-12-13T11:42:15.411Z,99540.69
2022-12-13T11:47:25.234Z,99540.59
2022-12-13T11:52:40.952Z,99543.59
2022-12-13T11:57:54.909Z,99550.25
2022-12-13T12:03:06.491Z,99549.50
2022-12-13T12:08:32.267Z,99545.16
2022-12-13T12:13:51.114Z,99531.19
2022-12-13T12:18:53.822Z,99536.50
2022-12-13T12:24:09.609Z,99535.69
2022-12-13T12:29:17.694Z,99534.72
2022-12-13T12:34:51.739Z,99536.84
2022-12-13T12:40:27.068Z,99536.47
2022-12-13T12:46:11.578Z,99531.97
2022-12-13T12:51:30.418Z,99529.72
2022-12-13T12:56:50.397Z,99528.03
2022-12-13T13:02:07.701Z,99535.25
2022-12-13T13:07:39.708Z,99530.50
2022-12-13T13:12:43.141Z,99523.19
2022-12-13T13:17:46.806Z,99524.63
2022-12-13T13:23:03.932Z,99522.31
2022-12-13T13:28:17.262Z,99521.44
2022-12-13T13:33:49.571Z,99511.91
2022-12-13T13:38:53.431Z,99516.25
2022-12-13T13:43:55.259Z,99517.84
2022-12-13T13:49:10.126Z,99526.47
2022-12-13T13:54:26.752Z,99528.81
2022-12-13T13:59:53.219Z,99537.81
2022-12-13T14:05:06.879Z,99543.91
2022-12-13T14:10:27.176Z,99538.09
2022-12-13T14:15:56.129Z,99536.63
2022-12-13T14:21:22.388Z,99552.72
2022-12-13T14:26:44.444Z,99542.97
2022-12-13T14:31:53.463Z,99539.13
2022-12-13T14:37:06.322Z,99535.63
2022-12-13T14:42:24.858Z,99541.59
2022-12-13T14:47:27.383Z,99551.56
2022-12-13T14:52:35.574Z,99548.69
2022-12-13T14:57:37.291Z,99543.31
2022-12-13T15:02:51.044Z,99533.56
2022-12-13T15:07:53.379Z,99539.19
2022-12-13T15:12:55.861Z,99543.47
2022-12-13T15:18:09.875Z,99527.94
2022-12-13T15:23:30.100Z,99524.41
2022-12-13T15:28:39.764Z,99523.38
2022-12-13T15:33:48.385Z,99516.44
2022-12-13T15:38:53.572Z,99528.91
2022-12-13T15:44:03.362Z,99533.75
2022-12-13T15:49:16.399Z,99531.13
2022-12-13T15:54:21.802Z,99527.00
2022-12-13T15:59:44.134Z,99523.00
2022-12-13T16:04:46.436Z,99524.09
2022-12-13T16:09:50.682Z,99519.28
2022-12-13T16:14:52.596Z,99527.38
2022-12-13T16:20:09.817Z,99533.38
2022-12-13T16:25:14.451Z,99539.00
2022-12-13T16:30:24.457Z,99529.31
2022-12-13T16:35:26.364Z,99523.53
2022-12-13T16:40:33.230Z,99513.28
2022-12-13T16:45:42.059Z,99514.91
2022-12-13T16:50:57.600Z,99514.56
2022-12-13T16:56:00.130Z,99505.88
2022-12-13T17:01:02.880Z,99497.09
2022-12-13T17:06:05.706Z,99492.66
2022-12-13T17:11:14.619Z,99501.03
2022-12-13T17:16:19.940Z,99495.25
2022-12-13T17:21:26.183Z,99491.31
2022-12-13T17:26:29.681Z,99489.91
2022-12-13T17:31:35.821Z,99492.34
2022-12-13T17:36:37.997Z,99496.19
2022-12-13T17:41:40.082Z,99504.03
2022-12-13T17:46:42.203Z,99498.69
2022-12-13T17:51:56.918Z,99496.88
2022-12-13T17:56:58.998Z,99502.69
2022-12-13T18:02:02.601Z,99498.31
2022-12-13T18:07:04.404Z,99491.75
2022-12-13T18:12:08.581Z,99497.59
2022-12-13T18:17:10.892Z,99487.34
2022-12-13T18:22:12.888Z,99492.06
2022-12-13T18:27:14.936Z,99481.72
2022-12-13T18:32:16.678Z,99481.66
2022-12-13T18:37:18.329Z,99477.44
2022-12-13T18:42:20.187Z,99491.41
2022-12-13T18:47:22.078Z,99488.44
2022-12-13T18:52:24.043Z,99489.84
2022-12-13T18:57:26.204Z,99483.53
2022-12-13T19:02:34.075Z,99482.03
2022-12-13T19:07:36.596Z,99481.00
2022-12-13T19:12:38.464Z,99469.78
2022-12-13T19:17:40.086Z,99471.59
2022-12-13T19:22:41.740Z,99468.91
2022-12-13T19:27:46.675Z,99486.63
2022-12-13T19:32:48.464Z,99489.75
2022-12-13T19:37:50.132Z,99484.00
2022-12-13T19:42:51.887Z,99477.88
2022-12-13T19:47:53.540Z,99466.38
2022-12-13T19:52:55.345Z,99459.19
2022-12-13T19:57:57.826Z,99453.22
2022-12-13T20:02:59.554Z,99461.19
2022-12-13T20:08:01.542Z,99464.13
2022-12-13T20:13:03.501Z,99459.47
2022-12-13T20:18:05.226Z,99454.84
2022-12-13T20:23:06.827Z,99456.31
2022-12-13T20:28:12.667Z,99457.19
2022-12-13T20:33:16.106Z,99458.66
2022-12-13T20:38:18.276Z,99465.25
2022-12-13T20:43:20.092Z,99459.06
2022-12-13T20:48:22.307Z,99450.41
2022-12-13T20:53:24.544Z,99447.41
2022-12-13T20:58:27.418Z,99448.16
2022-12-13T21:03:29.148Z,99448.94
2022-12-13T21:08:49.479Z,99435.97
2022-12-13T21:14:03.634Z,99431.66
2022-12-13T21:19:21.509Z,99438.16
2022-12-13T21:24:28.276Z,99434.22
2022-12-13T21:29:41.376Z,99429.59
2022-12-13T21:34:44.435Z,99421.22
2022-12-13T21:39:49.822Z,99414.66
2022-12-13T21:44:52.281Z,99406.72
2022-12-13T21:49:53.923Z,99396.53
2022-12-13T21:55:15.316Z,99396.44
2022-12-13T22:00:17.492Z,99382.53
2022-12-13T22:05:19.216Z,99378.25
2022-12-13T22:10:26.304Z,99379.56
2022-12-13T22:15:28.515Z,99377.53
2022-12-13T22:20:33.556Z,99387.09
2022-12-13T22:25:36.329Z,99370.28
2022-12-13T22:30:38.089Z,99377.84
2022-12-13T22:35:40.173Z,99365.50
2022-12-13T22:40:42.375Z,99368.03
2022-12-13T22:45:46.184Z,99361.56
2022-12-13T22:50:48.457Z,99359.25
2022-12-13T22:55:52.622Z,99349.19
2022-12-13T23:00:55.642Z,99340.97
2022-12-13T23:06:15.929Z,99341.03
2022-12-13T23:11:36.611Z,99339.72
2022-12-13T23:16:39.291Z,99323.59
2022-12-13T23:21:41.458Z,99320.91
2022-12-13T23:26:50.163Z,99320.53
2022-12-13T23:31:52.051Z,99314.41
2022-12-13T23:36:53.657Z,99312.53
2022-12-13T23:41:55.363Z,99298.19
2022-12-13T23:46:57.026Z,99298.41
2022-12-13T23:51:58.633Z,99291.34
2022-12-13T23:57:01.355Z,99277.19
